Time,TemperatureF,DewpointF,PressureIn,WindDirection,WindDirectionDegrees,WindSpeedMPH,WindSpeedGustMPH,Humidity,HourlyPrecipIn,Conditions,Clouds,dailyrainin,SoftwareType,DateUTC
2013-08-28 12:24:00,88.0,66.0,-100.00,North,-999,-999.0,-999.0,47,0.00,,,0.29,,2013-08-28 17:24:00,
2013-08-28 12:52:00,88.0,65.0,-100.00,North,-999,-999.0,-999.0,46,0.00,,,0.21,,2013-08-28 17:52:00,
2013-08-28 13:22:00,89.0,62.0,-100.00,North,-999,-999.0,-999.0,40,0.00,,,0.03,,2013-08-28 18:22:00,
2013-08-28 13:52:00,90.0,63.0,-100.00,North,-999,-999.0,-999.0,40,0.00,,,0.00,,2013-08-28 18:52:00,
2013-08-28 14:22:00,90.0,61.0,-100.00,North,-999,-999.0,-999.0,38,0.00,,,0.00,,2013-08-28 19:22:00,
2013-08-28 14:52:00,92.0,59.0,-100.00,North,-999,-999.0,-999.0,34,0.00,,,0.00,,2013-08-28 19:52:00,
2013-08-28 15:23:00,92.0,60.0,-100.00,North,-999,-999.0,-999.0,35,0.00,,,0.00,,2013-08-28 20:23:00,
2013-08-28 15:52:00,94.0,60.0,-100.00,North,-999,-999.0,-999.0,33,0.00,,,0.00,,2013-08-28 20:52:00,
2013-08-28 16:22:00,93.0,60.0,-100.00,North,-999,-999.0,-999.0,34,0.00,,,0.00,,2013-08-28 21:22:00,
2013-08-28 16:57:00,94.0,60.0,-100.00,North,-999,-999.0,-999.0,33,0.00,,,0.00,,2013-08-28 21:57:00,
2013-08-28 17:25:00,92.0,60.0,-100.00,North,-999,-999.0,-999.0,35,0.00,,,-99.99,,2013-08-28 22:25:00,
2013-08-28 17:54:00,92.0,61.0,-100.00,North,-999,-999.0,-999.0,36,0.00,,,0.00,,2013-08-28 22:54:00,
2013-08-28 18:22:00,93.0,60.0,-100.00,North,-999,-999.0,-999.0,34,0.00,,,0.00,,2013-08-28 23:22:00,
2013-08-28 18:53:00,94.0,60.0,-100.00,North,-999,-999.0,-999.0,33,0.00,,,0.00,,2013-08-28 23:53:00,
2013-08-28 20:22:00,88.0,62.0,-100.00,North,-999,-999.0,-999.0,41,0.00,,,0.00,,2013-08-29 01:22:00,
2013-08-28 20:52:00,86.0,63.0,-100.00,North,-999,-999.0,-999.0,46,0.00,,,0.00,,2013-08-29 01:52:00,
2013-08-28 21:22:00,84.0,63.0,-100.00,North,-999,-999.0,-999.0,50,0.00,,,0.00,,2013-08-29 02:22:00,
2013-08-28 22:23:00,83.0,63.0,-100.00,North,-999,-999.0,-999.0,52,0.00,,,0.00,,2013-08-29 03:23:00,
2013-08-28 22:56:00,82.0,63.0,-100.00,North,-999,-999.0,-999.0,53,0.00,,,0.00,,2013-08-29 03:56:00,
2013-08-28 23:28:00,81.0,63.0,-100.00,North,-999,-999.0,-999.0,54,0.00,,,0.00,,2013-08-29 04:28:00,
2013-08-28 23:54:00,81.0,63.0,-100.00,North,-999,-999.0,-999.0,55,0.00,,,0.00,,2013-08-29 04:54:00,